Time;durP1;ratioP1;P1;durP2;ratioP2;P2;SDS_P1;SDS_P2;PMS_P1;PMS_P2;Temp;Humidity;BMP_temperature;BMP_pressure;BME280_temperature;BME280_humidity;BME280_pressure;Samples;Min_cycle;Max_cycle;Signal;HPM_P1;HPM_P2
2023/11/02 00:01:02;;;;;;;11.68;2.97;;;12.90;99.90;;;;;;4265623;27;20047;-65
2023/11/02 00:03:05;;;;;;;20.90;4.00;;;12.90;99.90;;;;;;4265697;27;20054;-59
2023/11/02 00:05:50;;;;;;;15.85;3.70;;;12.90;99.90;;;;;;4265539;27;20043;-61
2023/11/02 00:07:52;;;;;;;19.13;4.22;;;12.90;99.90;;;;;;4265362;27;20058;-59
2023/11/02 00:09:56;;;;;;;14.50;3.33;;;12.90;99.90;;;;;;4265198;27;20050;-61
2023/11/02 00:12:02;;;;;;;15.73;4.03;;;12.90;99.90;;;;;;4265262;27;20383;-59
2023/11/02 00:14:05;;;;;;;15.85;3.78;;;12.80;99.90;;;;;;4264310;27;20122;-58
2023/11/02 00:16:07;;;;;;;13.70;3.10;;;12.80;99.90;;;;;;4265172;27;20046;-58
2023/11/02 00:18:10;;;;;;;10.10;3.05;;;12.80;99.90;;;;;;4264537;27;20411;-59
2023/11/02 00:20:31;;;;;;;17.02;3.20;;;12.80;99.90;;;;;;4264914;27;20046;-59
2023/11/02 00:22:42;;;;;;;14.35;4.03;;;12.70;99.90;;;;;;4265029;27;20087;-59
2023/11/02 00:24:44;;;;;;;11.80;3.10;;;12.70;99.90;;;;;;4265682;27;20076;-61
2023/11/02 00:26:46;;;;;;;14.43;3.05;;;12.80;99.90;;;;;;4264864;27;20047;-58
2023/11/02 00:28:48;;;;;;;12.10;3.35;;;12.70;99.90;;;;;;4264022;27;20047;-60
2023/11/02 00:30:51;;;;;;;11.88;2.83;;;12.60;99.90;;;;;;4264450;27;20047;-57
2023/11/02 00:32:54;;;;;;;10.18;2.88;;;12.60;99.90;;;;;;4264420;27;20038;-57
2023/11/02 00:34:56;;;;;;;13.18;3.53;;;12.60;99.90;;;;;;4264575;27;20043;-60
2023/11/02 00:36:59;;;;;;;10.68;2.75;;;12.40;99.90;;;;;;4246342;27;20043;-60
2023/11/02 00:39:02;;;;;;;14.43;3.38;;;12.50;99.90;;;;;;4264562;27;20102;-60
2023/11/02 00:41:05;;;;;;;10.20;2.80;;;12.40;99.90;;;;;;4264916;27;20433;-59
2023/11/02 00:43:08;;;;;;;8.30;2.22;;;12.40;99.90;;;;;;4263895;27;20058;-60
2023/11/02 00:45:13;;;;;;;9.65;2.70;;;12.50;99.90;;;;;;4264890;27;20481;-59
2023/11/02 00:47:16;;;;;;;15.80;3.08;;;12.50;99.90;;;;;;4264898;27;20047;-56
2023/11/02 00:49:21;;;;;;;12.32;2.90;;;12.40;99.90;;;;;;4265504;27;20103;-59
2023/11/02 00:51:30;;;;;;;10.60;2.45;;;12.40;99.90;;;;;;4268061;27;20074;-55
2023/11/02 00:53:32;;;;;;;10.25;3.30;;;12.40;99.90;;;;;;4268174;27;20492;-56
2023/11/02 00:55:36;;;;;;;7.88;2.10;;;12.40;99.90;;;;;;4268095;27;20118;-55
2023/11/02 00:57:40;;;;;;;14.32;3.10;;;12.30;99.90;;;;;;4267877;27;20042;-56
2023/11/02 00:59:44;;;;;;;11.60;2.60;;;12.20;99.90;;;;;;4267982;27;20038;-56
2023/11/02 01:01:46;;;;;;;16.35;2.60;;;12.20;99.90;;;;;;4268070;27;20400;-58
2023/11/02 01:03:52;;;;;;;12.48;2.97;;;12.20;99.90;;;;;;4268641;27;20046;-55
2023/11/02 01:05:54;;;;;;;10.48;2.63;;;12.20;99.90;;;;;;4268561;27;20126;-57
2023/11/02 01:07:57;;;;;;;8.73;2.53;;;12.20;99.90;;;;;;4268178;27;20126;-57
2023/11/02 01:10:01;;;;;;;8.65;2.40;;;12.20;99.90;;;;;;4268312;27;20047;-55
2023/11/02 01:12:06;;;;;;;9.57;2.55;;;12.10;99.90;;;;;;4269710;27;20046;-62
2023/11/02 01:14:33;;;;;;;5.75;1.73;;;12.10;99.90;;;;;;4270859;27;20034;-60
2023/11/02 01:16:36;;;;;;;11.05;3.50;;;12.00;99.90;;;;;;4271093;27;20075;-59
2023/11/02 01:18:43;;;;;;;8.38;1.83;;;12.10;99.90;;;;;;4268640;27;20066;-56
2023/11/02 01:20:59;;;;;;;9.30;2.30;;;12.10;99.90;;;;;;4269216;27;20045;-56
2023/11/02 01:23:03;;;;;;;7.63;1.67;;;12.10;99.90;;;;;;4268156;27;20050;-56
2023/11/02 01:25:11;;;;;;;10.82;2.42;;;12.20;99.90;;;;;;4268340;27;20047;-59
2023/11/02 01:27:23;;;;;;;8.23;2.35;;;12.20;99.90;;;;;;4267058;27;20043;-59
2023/11/02 01:29:28;;;;;;;9.75;2.47;;;12.20;99.90;;;;;;4267572;27;20038;-56
2023/11/02 01:31:34;;;;;;;;;;;12.20;99.90;;;;;;4268221;27;20046;-57
2023/11/02 01:33:58;;;;;;;;;;;12.20;99.90;;;;;;4268171;27;19954;-59
2023/11/02 01:36:01;;;;;;;9.40;2.47;;;12.10;99.90;;;;;;4267464;27;20006;-59
2023/11/02 01:38:03;;;;;;;7.47;1.80;;;12.10;99.90;;;;;;4267333;27;20049;-57
2023/11/02 01:40:09;;;;;;;9.25;2.28;;;12.10;99.90;;;;;;4266909;27;20125;-56
2023/11/02 01:42:19;;;;;;;7.10;2.08;;;12.20;99.90;;;;;;4248590;27;20504;-58
2023/11/02 01:44:32;;;;;;;7.50;2.00;;;12.20;99.90;;;;;;4266968;27;20043;-58
2023/11/02 01:46:44;;;;;;;11.00;2.22;;;12.30;99.90;;;;;;4266952;27;20122;-61
2023/11/02 01:48:51;;;;;;;5.47;1.73;;;12.30;99.90;;;;;;4266083;27;20077;-59
2023/11/02 01:51:02;;;;;;;8.85;1.98;;;12.30;99.90;;;;;;4266300;27;20107;-60
2023/11/02 01:53:41;;;;;;;8.75;1.95;;;12.30;99.90;;;;;;4266176;27;20042;-59
2023/11/02 01:55:56;;;;;;;7.82;1.83;;;12.40;99.90;;;;;;4265804;27;20042;-60
2023/11/02 01:58:05;;;;;;;5.63;2.08;;;12.40;99.90;;;;;;4266153;27;20039;-64
2023/11/02 02:00:12;;;;;;;5.95;1.30;;;12.40;99.90;;;;;;4265528;27;20047;-59
2023/11/02 02:02:20;;;;;;;5.78;1.70;;;12.40;99.90;;;;;;4266110;27;20043;-59
2023/11/02 02:04:31;;;;;;;5.85;1.63;;;12.50;99.90;;;;;;4266946;27;20071;-57
2023/11/02 02:06:44;;;;;;;5.50;1.42;;;12.60;99.90;;;;;;4266964;27;20476;-59
2023/11/02 02:08:54;;;;;;;5.90;1.30;;;12.60;99.90;;;;;;4265589;27;20114;-60
2023/11/02 02:11:05;;;;;;;4.82;1.60;;;12.60;99.90;;;;;;4265827;27;20047;-59
2023/11/02 02:13:17;;;;;;;6.70;2.10;;;12.70;99.90;;;;;;4265746;27;20050;-59
2023/11/02 02:15:24;;;;;;;10.90;1.67;;;12.70;99.90;;;;;;4247608;27;20532;-59
2023/11/02 02:17:38;;;;;;;18.95;2.00;;;12.70;99.90;;;;;;4265794;27;20528;-58
2023/11/02 02:19:57;;;;;;;5.75;1.20;;;12.70;99.90;;;;;;4266172;27;20502;-60
2023/11/02 02:22:05;;;;;;;5.50;1.40;;;12.70;99.90;;;;;;4266064;27;20064;-59
2023/11/02 02:24:11;;;;;;;6.63;1.58;;;12.70;99.90;;;;;;4266471;27;20411;-59
2023/11/02 02:26:33;;;;;;;9.77;1.70;;;12.90;99.90;;;;;;4266129;27;20045;-59
2023/11/02 02:28:57;;;;;;;5.65;1.50;;;13.00;99.90;;;;;;4265741;27;20699;-59
2023/11/02 02:31:12;;;;;;;6.30;1.50;;;13.00;99.90;;;;;;4265597;27;20114;-59
2023/11/02 02:33:45;;;;;;;6.38;1.50;;;13.00;99.90;;;;;;4265726;27;20854;-56
2023/11/02 02:35:55;;;;;;;6.00;1.33;;;13.00;99.90;;;;;;4258971;27;20050;-60
2023/11/02 02:38:03;;;;;;;7.55;1.67;;;13.00;99.90;;;;;;4265269;27;20142;-59
2023/11/02 02:40:07;;;;;;;4.13;1.40;;;13.00;99.90;;;;;;4265734;27;20125;-58
2023/11/02 02:42:13;;;;;;;8.98;2.25;;;13.10;99.90;;;;;;4266309;27;20069;-60
2023/11/02 02:44:17;;;;;;;6.57;1.15;;;13.10;99.90;;;;;;4267241;27;20081;-58
2023/11/02 02:46:22;;;;;;;6.13;1.60;;;13.10;99.90;;;;;;4266659;27;20391;-59
2023/11/02 02:48:26;;;;;;;7.43;1.63;;;13.10;99.90;;;;;;4266401;27;20042;-60
2023/11/02 02:50:31;;;;;;;5.07;1.10;;;13.20;99.90;;;;;;4266360;27;20066;-56
2023/11/02 02:52:38;;;;;;;2.92;1.13;;;13.20;99.90;;;;;;4265834;27;20053;-60
2023/11/02 02:54:44;;;;;;;3.42;1.45;;;13.20;99.90;;;;;;4266184;27;20427;-59
2023/11/02 02:56:49;;;;;;;6.53;1.50;;;13.30;99.90;;;;;;4266091;27;20070;-59
2023/11/02 02:58:59;;;;;;;6.45;1.75;;;13.20;99.90;;;;;;4266132;27;20073;-56
2023/11/02 03:01:05;;;;;;;6.00;1.40;;;13.20;99.90;;;;;;4266388;27;20046;-60
2023/11/02 03:03:08;;;;;;;3.05;1.25;;;13.30;99.90;;;;;;4267195;27;20046;-65
2023/11/02 03:05:11;;;;;;;7.40;1.60;;;13.30;99.90;;;;;;4266397;27;20049;-59
2023/11/02 03:07:15;;;;;;;4.93;1.20;;;13.30;99.90;;;;;;4265984;27;20117;-59
2023/11/02 03:09:25;;;;;;;8.00;1.80;;;13.20;99.90;;;;;;4266214;27;20053;-59
2023/11/02 03:11:29;;;;;;;4.18;1.20;;;13.30;99.90;;;;;;4267322;27;20103;-62
2023/11/02 03:13:32;;;;;;;7.05;1.40;;;13.20;99.90;;;;;;4265752;27;20043;-62
2023/11/02 03:15:37;;;;;;;3.78;1.20;;;13.20;99.90;;;;;;4265556;27;20336;-58
2023/11/02 03:17:59;;;;;;;4.20;1.40;;;13.30;99.90;;;;;;4265795;27;20400;-59
2023/11/02 03:20:01;;;;;;;4.85;1.40;;;13.40;99.90;;;;;;4266403;27;20058;-59
2023/11/02 03:22:03;;;;;;;6.63;1.50;;;13.40;99.90;;;;;;4265926;27;20502;-58
2023/11/02 03:24:13;;;;;;;5.32;1.38;;;13.40;99.90;;;;;;4265733;27;20068;-59
2023/11/02 03:26:27;;;;;;;5.90;1.08;;;13.40;99.90;;;;;;4265468;27;20081;-59
2023/11/02 03:28:45;;;;;;;4.88;1.23;;;13.40;99.90;;;;;;4265711;27;20095;-59
2023/11/02 03:30:58;;;;;;;5.03;1.00;;;13.50;99.90;;;;;;4265607;27;20042;-58
2023/11/02 03:33:10;;;;;;;5.53;1.15;;;13.50;99.90;;;;;;4265540;27;20050;-59
2023/11/02 03:35:21;;;;;;;4.85;1.33;;;13.60;99.90;;;;;;4265563;27;20051;-59
2023/11/02 03:37:32;;;;;;;5.18;1.25;;;13.60;99.90;;;;;;4264992;27;20045;-60
2023/11/02 03:39:46;;;;;;;9.90;1.50;;;13.50;99.90;;;;;;4266825;27;20066;-59
2023/11/02 03:42:03;;;;;;;8.35;1.58;;;13.60;99.90;;;;;;4265210;27;20522;-59
2023/11/02 03:44:17;;;;;;;7.07;1.65;;;13.60;99.90;;;;;;4265515;27;20588;-59
2023/11/02 03:46:29;;;;;;;27.30;2.28;;;13.60;99.90;;;;;;4265737;27;20122;-59
2023/11/02 03:48:41;;;;;;;6.28;1.65;;;13.70;99.90;;;;;;4265391;27;20050;-59
2023/11/02 03:50:52;;;;;;;10.82;2.08;;;13.70;99.90;;;;;;4264829;27;20138;-59
2023/11/02 03:53:03;;;;;;;10.18;2.47;;;13.80;99.90;;;;;;4265457;27;20046;-59
2023/11/02 03:55:19;;;;;;;13.10;2.50;;;13.80;99.90;;;;;;4265217;27;20133;-59
2023/11/02 03:57:29;;;;;;;11.77;3.33;;;13.80;99.90;;;;;;4265359;27;20128;-65
2023/11/02 03:59:39;;;;;;;13.50;2.17;;;13.80;99.90;;;;;;4265764;27;20043;-57
2023/11/02 04:01:52;;;;;;;13.85;2.97;;;13.80;99.90;;;;;;4265147;27;20042;-57
2023/11/02 04:04:02;;;;;;;11.85;3.17;;;13.80;99.90;;;;;;4264984;27;20074;-57
2023/11/02 04:06:10;;;;;;;18.90;2.90;;;13.80;99.90;;;;;;4264633;27;20066;-57
2023/11/02 04:08:17;;;;;;;16.80;3.97;;;13.70;99.90;;;;;;4264744;27;20046;-57
2023/11/02 04:10:24;;;;;;;16.08;3.70;;;13.60;99.90;;;;;;4265191;27;20380;-60
2023/11/02 04:12:34;;;;;;;15.25;3.50;;;13.50;99.90;;;;;;4264556;27;20100;-60
2023/11/02 04:14:39;;;;;;;19.88;3.20;;;13.50;99.90;;;;;;4264992;27;20488;-59
2023/11/02 04:16:41;;;;;;;21.05;4.40;;;13.40;99.90;;;;;;4266213;27;20070;-59
2023/11/02 04:18:43;;;;;;;18.17;4.00;;;13.20;99.90;;;;;;4267806;27;20047;-57
2023/11/02 04:20:51;;;;;;;12.38;2.97;;;13.20;99.90;;;;;;4268049;27;20092;-57
2023/11/02 04:22:53;;;;;;;9.82;2.33;;;13.20;99.90;;;;;;4266909;27;20043;-57
2023/11/02 04:24:55;;;;;;;8.05;1.42;;;13.20;99.90;;;;;;4265660;27;20050;-57
2023/11/02 04:26:57;;;;;;;6.03;1.33;;;13.10;99.90;;;;;;4265030;27;20049;-57
2023/11/02 04:29:01;;;;;;;7.57;1.48;;;13.10;99.90;;;;;;4265257;27;20070;-57
2023/11/02 04:31:04;;;;;;;5.13;1.25;;;13.10;99.90;;;;;;4265106;27;20400;-58
2023/11/02 04:33:06;;;;;;;4.35;0.98;;;13.20;99.90;;;;;;4265193;27;20042;-57
2023/11/02 04:35:09;;;;;;;5.45;1.20;;;13.10;99.90;;;;;;4264458;27;20278;-57
2023/11/02 04:37:13;;;;;;;4.30;1.30;;;13.10;99.90;;;;;;4265349;27;20070;-59
2023/11/02 04:39:15;;;;;;;6.25;1.52;;;13.10;99.90;;;;;;4265279;27;20050;-56
2023/11/02 04:41:17;;;;;;;7.18;1.45;;;13.00;99.90;;;;;;4264640;27;20049;-57
2023/11/02 04:43:19;;;;;;;12.63;2.47;;;13.00;99.90;;;;;;4264867;27;20049;-57
2023/11/02 04:45:22;;;;;;;9.98;2.55;;;13.00;99.90;;;;;;4264727;27;20099;-56
2023/11/02 04:47:24;;;;;;;13.20;3.03;;;13.00;99.90;;;;;;4264850;27;20043;-57
2023/11/02 04:49:27;;;;;;;13.68;2.38;;;13.00;99.90;;;;;;4264455;27;20067;-57
2023/11/02 04:51:29;;;;;;;15.07;3.50;;;13.00;99.90;;;;;;4264454;27;20042;-57
2023/11/02 04:53:31;;;;;;;22.40;3.90;;;13.00;99.90;;;;;;4264706;27;20499;-57
2023/11/02 04:55:33;;;;;;;15.50;3.80;;;13.00;99.90;;;;;;4267301;27;20050;-56
2023/11/02 04:57:35;;;;;;;17.65;3.33;;;13.00;99.90;;;;;;4266089;27;20461;-57
2023/11/02 04:59:41;;;;;;;16.85;3.22;;;13.00;99.90;;;;;;4264623;27;20047;-56
2023/11/02 05:01:45;;;;;;;20.02;4.20;;;13.00;99.90;;;;;;4264722;27;20301;-57
2023/11/02 05:03:47;;;;;;;22.40;4.05;;;13.10;99.90;;;;;;4264168;27;20130;-57
2023/11/02 05:05:50;;;;;;;21.25;4.28;;;13.00;99.90;;;;;;4264418;27;20488;-57
2023/11/02 05:07:52;;;;;;;22.40;4.53;;;13.00;99.90;;;;;;4246295;27;20053;-57
2023/11/02 05:09:54;;;;;;;16.70;4.28;;;13.00;99.90;;;;;;4264481;27;20070;-56
2023/11/02 05:11:56;;;;;;;16.67;3.92;;;13.00;99.90;;;;;;4264341;27;20051;-57
2023/11/02 05:13:59;;;;;;;17.52;4.00;;;13.00;99.90;;;;;;4264579;27;20043;-56
2023/11/02 05:16:01;;;;;;;14.07;3.70;;;13.00;99.90;;;;;;4247286;28;20047;-57
2023/11/02 05:18:04;;;;;;;19.23;4.45;;;13.10;99.90;;;;;;4264656;27;20042;-56
2023/11/02 05:20:07;;;;;;;22.45;4.43;;;13.10;99.90;;;;;;4264335;27;20075;-57
2023/11/02 05:22:10;;;;;;;23.65;5.53;;;13.10;99.90;;;;;;4264650;27;20050;-60
2023/11/02 05:24:13;;;;;;;23.02;3.78;;;13.10;99.90;;;;;;4265047;27;20070;-57
2023/11/02 05:26:16;;;;;;;18.42;3.88;;;13.10;99.90;;;;;;4266956;27;20080;-57
2023/11/02 05:28:18;;;;;;;21.10;4.55;;;13.10;99.90;;;;;;4265778;27;20066;-57
2023/11/02 05:30:20;;;;;;;19.73;4.72;;;13.10;99.90;;;;;;4265177;27;20118;-56
2023/11/02 05:32:22;;;;;;;18.77;4.43;;;13.10;99.90;;;;;;4264112;27;20053;-56
2023/11/02 05:34:25;;;;;;;16.58;4.28;;;13.10;99.90;;;;;;4264378;27;20077;-57
2023/11/02 05:36:28;;;;;;;19.15;3.90;;;13.00;99.90;;;;;;4249549;27;20143;-57
2023/11/02 05:38:30;;;;;;;20.75;4.25;;;13.00;99.90;;;;;;4267698;27;20039;-57
2023/11/02 05:40:32;;;;;;;20.77;4.22;;;13.00;99.90;;;;;;4267374;27;20403;-57
2023/11/02 05:42:34;;;;;;;13.63;3.60;;;13.10;99.90;;;;;;4267123;27;20095;-56
2023/11/02 05:44:36;;;;;;;21.05;4.75;;;13.00;99.90;;;;;;4267622;27;20456;-56
2023/11/02 05:46:38;;;;;;;24.45;4.40;;;12.90;99.90;;;;;;4267261;27;20519;-57
2023/11/02 05:48:40;;;;;;;19.23;4.82;;;12.90;99.90;;;;;;4270032;27;20073;-57
2023/11/02 05:50:43;;;;;;;25.02;4.47;;;13.00;99.90;;;;;;4268555;27;20117;-57
2023/11/02 05:52:46;;;;;;;18.27;3.85;;;13.00;99.90;;;;;;4267781;27;20046;-61
2023/11/02 05:54:48;;;;;;;29.17;4.95;;;13.00;99.90;;;;;;4267337;27;20054;-57
2023/11/02 05:56:50;;;;;;;42.33;6.50;;;13.10;99.90;;;;;;4267769;27;20089;-57
2023/11/02 05:58:53;;;;;;;28.45;5.45;;;13.00;99.90;;;;;;4248970;27;20039;-57
2023/11/02 06:00:55;;;;;;;24.60;5.47;;;13.10;99.90;;;;;;4267010;27;20046;-57
2023/11/02 06:02:58;;;;;;;26.17;5.22;;;13.10;99.90;;;;;;4267206;27;20528;-56
2023/11/02 06:05:00;;;;;;;24.85;4.80;;;13.10;99.90;;;;;;4249350;27;20524;-64
2023/11/02 06:07:04;;;;;;;33.50;5.28;;;13.20;99.90;;;;;;4269960;27;20456;-70
2023/11/02 06:09:07;;;;;;;26.50;5.47;;;13.20;99.90;;;;;;4269073;27;20073;-61
2023/11/02 06:11:09;;;;;;;22.52;5.00;;;13.20;99.90;;;;;;4268600;27;20046;-60
2023/11/02 06:13:12;;;;;;;24.17;5.07;;;13.20;99.90;;;;;;4268205;27;20046;-59
2023/11/02 06:15:14;;;;;;;23.13;4.85;;;13.20;99.90;;;;;;4268769;27;20066;-58
2023/11/02 06:17:16;;;;;;;22.05;4.75;;;13.20;99.90;;;;;;4249175;27;20039;-62
2023/11/02 06:19:18;;;;;;;24.50;4.55;;;13.20;99.90;;;;;;4266814;27;20049;-58
2023/11/02 06:21:21;;;;;;;27.27;4.95;;;13.20;99.90;;;;;;4266570;27;20043;-58
2023/11/02 06:23:24;;;;;;;19.52;5.00;;;13.20;99.90;;;;;;4266491;27;20092;-59
2023/11/02 06:25:26;;;;;;;22.50;5.28;;;13.20;99.90;;;;;;4266833;27;20103;-56
2023/11/02 06:27:29;;;;;;;20.40;4.97;;;13.20;99.90;;;;;;4266511;27;20066;-59
2023/11/02 06:29:32;;;;;;;25.55;5.15;;;13.20;99.90;;;;;;4266579;27;20125;-59
2023/11/02 06:31:36;;;;;;;24.95;4.68;;;13.30;99.90;;;;;;4266414;27;20049;-59
2023/11/02 06:33:38;;;;;;;25.10;4.95;;;13.20;99.90;;;;;;4266574;27;20052;-58
2023/11/02 06:35:40;;;;;;;24.08;4.43;;;13.20;99.90;;;;;;4267633;27;20391;-60
2023/11/02 06:37:56;;;;;;;20.35;4.65;;;13.20;99.90;;;;;;4248290;27;20043;-59
2023/11/02 06:39:59;;;;;;;25.40;4.88;;;13.20;99.90;;;;;;4266489;27;20075;-59
2023/11/02 06:42:02;;;;;;;19.38;4.45;;;13.20;99.90;;;;;;4247865;27;20047;-59
2023/11/02 06:44:04;;;;;;;19.15;4.35;;;13.20;99.90;;;;;;4266324;27;20038;-58
2023/11/02 06:46:06;;;;;;;20.67;5.50;;;13.20;99.90;;;;;;4265904;27;20103;-59
2023/11/02 06:48:09;;;;;;;21.23;4.32;;;13.20;99.90;;;;;;4265709;27;20039;-59
2023/11/02 06:50:11;;;;;;;27.05;4.50;;;13.20;99.90;;;;;;4266658;27;20046;-58
2023/11/02 06:52:13;;;;;;;27.15;4.55;;;13.20;99.90;;;;;;4266707;27;20046;-60
2023/11/02 06:54:15;;;;;;;18.05;4.20;;;13.20;99.90;;;;;;4267360;27;20047;-59
2023/11/02 06:56:21;;;;;;;21.80;4.68;;;13.20;99.90;;;;;;4268135;27;20399;-60
2023/11/02 06:58:23;;;;;;;26.20;4.82;;;13.10;99.90;;;;;;4267425;27;20107;-59
2023/11/02 07:00:28;;;;;;;18.55;4.50;;;13.10;99.90;;;;;;4266194;27;20053;-59
2023/11/02 07:02:30;;;;;;;30.55;4.80;;;13.10;99.90;;;;;;4266159;27;20486;-62
2023/11/02 07:04:32;;;;;;;35.38;5.90;;;13.20;99.90;;;;;;4266109;27;20467;-59
2023/11/02 07:06:35;;;;;;;20.80;4.13;;;13.20;99.80;;;;;;4266151;27;20125;-59
2023/11/02 07:08:37;;;;;;;21.98;5.10;;;13.20;99.90;;;;;;4265734;27;20399;-58
2023/11/02 07:10:48;;;;;;;31.30;5.15;;;13.20;99.90;;;;;;4266029;27;20417;-60
2023/11/02 07:12:52;;;;;;;23.67;4.45;;;13.20;99.90;;;;;;4266032;27;20095;-59
2023/11/02 07:14:54;;;;;;;20.75;5.10;;;13.20;99.60;;;;;;4266612;27;20057;-59
2023/11/02 07:16:56;;;;;;;30.40;5.00;;;13.20;99.80;;;;;;4266074;27;20074;-59
2023/11/02 07:19:01;;;;;;;22.60;4.72;;;13.20;99.80;;;;;;4265669;27;20070;-61
2023/11/02 07:21:04;;;;;;;25.30;4.65;;;13.30;99.90;;;;;;4265782;27;20174;-59
2023/11/02 07:23:06;;;;;;;18.55;4.38;;;13.30;99.90;;;;;;4265536;27;20042;-57
2023/11/02 07:25:10;;;;;;;18.40;3.67;;;13.30;99.90;;;;;;4265701;27;20046;-56
2023/11/02 07:27:12;;;;;;;22.40;5.10;;;13.30;99.90;;;;;;4265585;27;20121;-56
2023/11/02 07:29:16;;;;;;;27.33;4.88;;;13.20;99.90;;;;;;4265473;27;20067;-57
2023/11/02 07:31:20;;;;;;;41.78;6.20;;;13.20;99.90;;;;;;4247752;27;20130;-57
2023/11/02 07:33:22;;;;;;;22.23;4.43;;;13.20;99.90;;;;;;4266066;27;20054;-57
2023/11/02 07:35:25;;;;;;;30.45;4.95;;;13.10;99.90;;;;;;4265972;27;20050;-59
2023/11/02 07:37:27;;;;;;;20.38;4.28;;;13.10;99.90;;;;;;4246901;27;20049;-59
2023/11/02 07:39:29;;;;;;;22.08;4.18;;;13.00;99.90;;;;;;4265546;27;20050;-59
2023/11/02 07:41:32;;;;;;;23.58;4.50;;;13.00;99.90;;;;;;4265074;27;20133;-60
2023/11/02 07:43:34;;;;;;;20.08;4.00;;;13.00;99.90;;;;;;4265120;27;20125;-59
2023/11/02 07:45:38;;;;;;;22.15;4.45;;;13.00;99.90;;;;;;4265655;27;20045;-59
2023/11/02 07:47:40;;;;;;;19.45;3.78;;;13.00;99.90;;;;;;4265303;27;20092;-60
2023/11/02 07:49:42;;;;;;;22.27;3.80;;;13.00;99.90;;;;;;4269704;27;20131;-60
2023/11/02 07:51:44;;;;;;;26.15;4.03;;;13.00;99.90;;;;;;4250549;27;20112;-60
2023/11/02 07:53:46;;;;;;;19.70;4.43;;;12.90;99.90;;;;;;4268460;27;20042;-60
2023/11/02 07:55:48;;;;;;;21.63;4.25;;;13.00;99.90;;;;;;4267965;27;20530;-61
2023/11/02 07:57:50;;;;;;;20.17;3.72;;;13.00;99.90;;;;;;4267582;27;20051;-60
2023/11/02 07:59:52;;;;;;;19.08;3.95;;;12.90;99.90;;;;;;4268038;27;20416;-57
2023/11/02 08:01:56;;;;;;;19.58;4.15;;;13.00;99.90;;;;;;4268584;27;20053;-57
2023/11/02 08:03:58;;;;;;;44.33;5.25;;;12.90;99.90;;;;;;4268205;27;20047;-57
2023/11/02 08:06:00;;;;;;;17.25;4.22;;;12.80;99.90;;;;;;4265830;27;20042;-57
2023/11/02 08:08:02;;;;;;;19.98;3.97;;;12.80;99.90;;;;;;4265646;27;20046;-57
2023/11/02 08:10:06;;;;;;;15.85;4.05;;;12.80;99.90;;;;;;4266125;27;20050;-58
2023/11/02 08:12:10;;;;;;;26.67;4.05;;;12.80;99.90;;;;;;4265322;27;20476;-59
2023/11/02 08:14:12;;;;;;;17.88;4.03;;;12.70;99.90;;;;;;4266644;27;20403;-59
2023/11/02 08:16:19;;;;;;;22.50;4.03;;;12.60;99.90;;;;;;4266115;27;20137;-59
2023/11/02 08:18:23;;;;;;;23.52;3.90;;;12.70;99.90;;;;;;4266475;27;20480;-59
2023/11/02 08:20:25;;;;;;;22.23;3.95;;;12.70;99.90;;;;;;4266136;27;20068;-59
2023/11/02 08:22:28;;;;;;;21.45;4.45;;;12.70;99.90;;;;;;4266265;27;20261;-59
2023/11/02 08:24:30;;;;;;;19.67;4.40;;;12.60;99.90;;;;;;4266256;27;20039;-58
2023/11/02 08:26:32;;;;;;;17.05;4.35;;;12.70;99.90;;;;;;4264811;27;20069;-57
2023/11/02 08:28:34;;;;;;;15.70;3.95;;;12.70;99.90;;;;;;4264990;27;20078;-58
2023/11/02 08:30:36;;;;;;;20.02;3.92;;;12.60;99.90;;;;;;4265158;27;20087;-58
2023/11/02 08:32:39;;;;;;;22.52;4.60;;;12.60;99.90;;;;;;4266767;27;20134;-59
2023/11/02 08:34:43;;;;;;;29.35;5.00;;;12.70;99.90;;;;;;4266426;27;20042;-56
2023/11/02 08:36:46;;;;;;;20.30;4.40;;;12.70;99.90;;;;;;4264759;27;20157;-56
2023/11/02 08:38:48;;;;;;;38.53;5.38;;;12.70;99.90;;;;;;4264842;27;20495;-58
2023/11/02 08:40:50;;;;;;;19.98;3.60;;;12.70;99.90;;;;;;4264272;27;20043;-58
2023/11/02 08:42:52;;;;;;;19.85;3.80;;;12.80;99.90;;;;;;4264370;27;20051;-58
2023/11/02 08:44:54;;;;;;;26.85;4.55;;;12.90;99.90;;;;;;4264646;27;20050;-58
2023/11/02 08:46:56;;;;;;;21.05;4.80;;;13.00;99.60;;;;;;4264802;27;20047;-55
2023/11/02 08:48:59;;;;;;;23.55;5.25;;;13.00;99.30;;;;;;4264420;27;20118;-55
2023/11/02 08:51:03;;;;;;;24.23;4.78;;;13.10;99.00;;;;;;4264805;27;20050;-56
2023/11/02 08:53:06;;;;;;;30.23;5.07;;;13.10;99.00;;;;;;4265804;27;20096;-56
2023/11/02 08:55:08;;;;;;;27.25;4.68;;;13.20;98.40;;;;;;4264624;27;20049;-59
2023/11/02 08:57:10;;;;;;;23.83;4.10;;;13.20;98.70;;;;;;4245875;27;20047;-59
2023/11/02 08:59:12;;;;;;;19.83;3.95;;;13.30;98.40;;;;;;4264433;27;20193;-59
2023/11/02 09:01:18;;;;;;;18.10;3.58;;;13.30;98.50;;;;;;4264668;27;20045;-56
2023/11/02 09:03:20;;;;;;;38.50;5.43;;;13.30;98.30;;;;;;4264752;27;20380;-56
2023/11/02 09:05:23;;;;;;;21.88;4.32;;;13.40;98.20;;;;;;4264267;27;20038;-56
2023/11/02 09:07:30;;;;;;;19.52;3.78;;;13.30;98.30;;;;;;4264572;27;20043;-60
2023/11/02 09:09:33;;;;;;;20.33;3.75;;;13.40;98.00;;;;;;4263985;27;20051;-59
2023/11/02 09:11:35;;;;;;;20.63;3.92;;;13.40;97.80;;;;;;4268020;27;20042;-59
2023/11/02 09:13:38;;;;;;;18.20;3.40;;;13.40;98.10;;;;;;4270162;27;20050;-60
2023/11/02 09:15:40;;;;;;;22.83;3.00;;;13.40;97.80;;;;;;4271443;27;20512;-66
2023/11/02 09:17:42;;;;;;;18.23;3.90;;;13.40;97.60;;;;;;4269425;27;20138;-59
2023/11/02 09:19:44;;;;;;;22.73;4.18;;;13.40;97.10;;;;;;4268147;27;20064;-59
2023/11/02 09:21:47;;;;;;;25.73;4.05;;;13.40;96.90;;;;;;4267536;27;20046;-58
2023/11/02 09:23:50;;;;;;;17.38;2.45;;;13.40;96.80;;;;;;4267335;27;20043;-59
2023/11/02 09:25:53;;;;;;;8.18;2.25;;;13.40;96.60;;;;;;4267870;27;20043;-58
2023/11/02 09:27:55;;;;;;;17.88;2.55;;;13.40;96.40;;;;;;4267680;27;20099;-58
2023/11/02 09:29:57;;;;;;;30.02;3.60;;;13.40;96.20;;;;;;4267733;27;20043;-56
2023/11/02 09:32:00;;;;;;;28.05;3.72;;;13.50;96.10;;;;;;4268688;27;20047;-58
2023/11/02 09:34:06;;;;;;;11.15;1.98;;;13.40;95.80;;;;;;4250138;27;20415;-56
2023/11/02 09:36:08;;;;;;;18.58;2.00;;;13.50;95.90;;;;;;4267478;27;20043;-56
2023/11/02 09:38:11;;;;;;;11.80;2.17;;;13.40;95.80;;;;;;4267557;27;20510;-59
2023/11/02 09:40:15;;;;;;;16.23;2.33;;;13.50;95.90;;;;;;4267210;27;20483;-58
2023/11/02 09:42:17;;;;;;;12.32;2.13;;;13.40;95.70;;;;;;4267250;27;20081;-59
2023/11/02 09:44:20;;;;;;;15.40;2.08;;;13.40;96.00;;;;;;4267541;27;20107;-59
2023/11/02 09:46:24;;;;;;;16.77;2.25;;;13.50;96.10;;;;;;4267416;27;20046;-58
2023/11/02 09:48:29;;;;;;;14.63;2.38;;;13.40;96.20;;;;;;4267794;27;20049;-59
2023/11/02 09:50:31;;;;;;;;;;;13.40;96.30;;;;;;4268499;27;20507;-59
2023/11/02 09:52:34;;;;;;;15.85;2.30;;;13.50;96.40;;;;;;4268167;27;20303;-58
2023/11/02 09:54:36;;;;;;;17.52;3.50;;;13.40;96.60;;;;;;4266764;27;20399;-59
2023/11/02 09:56:52;;;;;;;22.75;3.30;;;13.40;96.50;;;;;;4267675;27;20057;-58
2023/11/02 09:58:56;;;;;;;13.82;3.13;;;13.30;96.60;;;;;;4267738;27;20042;-59
2023/11/02 10:00:59;;;;;;;16.93;3.27;;;13.40;96.80;;;;;;4267114;27;20532;-59
2023/11/02 10:03:02;;;;;;;33.35;4.93;;;13.40;97.20;;;;;;4267106;27;20497;-59
2023/11/02 10:05:08;;;;;;;10.52;2.80;;;13.50;96.60;;;;;;4267286;27;20491;-59
2023/11/02 10:07:35;;;;;;;15.20;2.90;;;13.50;96.80;;;;;;4265382;27;20084;-59
2023/11/02 10:09:38;;;;;;;13.88;3.13;;;13.60;96.60;;;;;;4254316;27;20428;-60
2023/11/02 10:11:41;;;;;;;28.27;3.78;;;13.70;96.50;;;;;;4256106;27;20043;-59
2023/11/02 10:13:47;;;;;;;18.63;3.20;;;13.80;96.60;;;;;;4261224;27;20058;-56
2023/11/02 10:15:49;;;;;;;16.73;2.85;;;13.80;96.20;;;;;;4260416;27;20046;-56
2023/11/02 10:17:51;;;;;;;20.40;3.80;;;13.80;96.30;;;;;;4263820;27;20074;-55
2023/11/02 10:19:53;;;;;;;29.45;4.03;;;13.80;96.00;;;;;;4260547;27;20057;-56
2023/11/02 10:21:56;;;;;;;19.92;3.55;;;13.80;96.00;;;;;;4260190;27;20472;-56
2023/11/02 10:23:59;;;;;;;19.73;3.40;;;13.90;96.00;;;;;;4265938;27;20118;-56
2023/11/02 10:26:01;;;;;;;15.20;3.53;;;13.90;95.60;;;;;;4261486;27;20462;-55
2023/11/02 10:28:03;;;;;;;16.27;3.58;;;13.90;95.70;;;;;;4259083;27;20066;-56
2023/11/02 10:30:09;;;;;;;30.73;4.45;;;13.90;96.00;;;;;;4260811;27;20042;-57
2023/11/02 10:32:11;;;;;;;18.60;3.75;;;14.00;95.70;;;;;;4264542;27;20052;-57
2023/11/02 10:34:14;;;;;;;18.35;3.28;;;14.10;96.00;;;;;;4259283;27;20464;-55
2023/11/02 10:36:17;;;;;;;13.80;3.33;;;14.10;96.10;;;;;;4258176;27;20100;-58
2023/11/02 10:38:20;;;;;;;22.25;3.55;;;14.10;96.00;;;;;;4259747;27;20137;-56
2023/11/02 10:40:23;;;;;;;15.38;3.05;;;14.20;96.00;;;;;;4267037;27;20075;-55
2023/11/02 10:42:26;;;;;;;22.73;4.22;;;14.10;95.90;;;;;;4259864;27;20069;-56
2023/11/02 10:44:30;;;;;;;13.80;2.90;;;14.00;95.30;;;;;;4264537;27;20552;-56
2023/11/02 10:46:34;;;;;;;15.73;3.15;;;14.00;95.90;;;;;;4262580;27;20046;-60